Time;durP1;ratioP1;P1;durP2;ratioP2;P2;SDS_P1;SDS_P2;PMS_P1;PMS_P2;Temp;Humidity;BMP_temperature;BMP_pressure;BME280_temperature;BME280_humidity;BME280_pressure;Samples;Min_cycle;Max_cycle;Signal;HPM_P1;HPM_P2
2022/05/19 00:02:06;;;;;;;27.80;24.33;;;18.00;99.90;;;;;;4896061;29;20107;-89
2022/05/19 00:04:32;;;;;;;26.67;23.98;;;18.00;99.90;;;;;;4883073;29;20086;-89
2022/05/19 00:06:58;;;;;;;26.70;23.83;;;18.00;99.90;;;;;;4916368;29;20095;-89
2022/05/19 00:09:24;;;;;;;29.33;26.33;;;18.00;99.90;;;;;;4899093;29;20059;-90
2022/05/19 00:11:51;;;;;;;30.75;26.85;;;18.00;99.90;;;;;;4915137;29;20135;-89
2022/05/19 00:14:17;;;;;;;30.63;27.35;;;18.00;99.90;;;;;;4916351;29;20036;-90
2022/05/19 00:16:44;;;;;;;30.38;27.20;;;18.00;99.90;;;;;;4898694;29;20044;-90
2022/05/19 00:19:10;;;;;;;29.83;26.85;;;17.90;99.90;;;;;;4899246;29;20044;-90
2022/05/19 00:21:37;;;;;;;29.80;26.17;;;17.90;99.90;;;;;;4914152;29;20044;-89
2022/05/19 00:24:03;;;;;;;28.85;25.75;;;17.90;99.90;;;;;;4883377;29;20082;-89
2022/05/19 00:26:29;;;;;;;28.52;25.50;;;17.90;99.90;;;;;;4915397;29;20058;-89
2022/05/19 00:28:54;;;;;;;29.02;26.02;;;17.80;99.90;;;;;;4898300;29;20036;-89
2022/05/19 00:31:20;;;;;;;29.52;26.33;;;17.80;99.90;;;;;;4916160;29;20040;-89
2022/05/19 00:33:45;;;;;;;27.48;24.58;;;17.80;99.90;;;;;;4915554;29;20048;-89
2022/05/19 00:36:17;;;;;;;29.27;26.08;;;17.70;99.90;;;;;;4915962;29;20523;-90
2022/05/19 00:38:43;;;;;;;28.98;25.88;;;17.70;99.90;;;;;;4883207;29;20044;-89
2022/05/19 00:41:10;;;;;;;28.45;25.05;;;17.60;99.90;;;;;;4898957;29;20052;-89
2022/05/19 00:43:42;;;;;;;27.55;24.60;;;17.60;99.90;;;;;;4898335;29;20409;-89
2022/05/19 00:46:48;;;;;;;26.80;23.60;;;17.60;99.90;;;;;;4883765;29;20637;-89
2022/05/19 00:49:31;;;;;;;27.70;24.73;;;17.50;99.90;;;;;;4914515;29;20131;-90
2022/05/19 00:52:04;;;;;;;26.73;23.85;;;17.40;99.90;;;;;;4916012;29;20056;-90
2022/05/19 00:54:39;;;;;;;26.50;23.67;;;17.40;99.90;;;;;;4898783;29;20159;-89
2022/05/19 00:57:17;;;;;;;27.02;24.05;;;17.30;99.90;;;;;;4898307;29;20044;-89
2022/05/19 01:00:01;;;;;;;26.88;24.13;;;17.30;99.90;;;;;;4915502;29;20091;-90
2022/05/19 01:02:35;;;;;;;26.00;23.15;;;17.20;99.90;;;;;;4898314;29;20055;-89
2022/05/19 01:05:10;;;;;;;26.52;23.92;;;17.20;99.90;;;;;;4915700;29;20058;-89
2022/05/19 01:07:55;;;;;;;26.92;24.10;;;17.10;99.90;;;;;;4913382;29;20557;-89
2022/05/19 01:10:21;;;;;;;28.17;25.20;;;17.10;99.90;;;;;;4898052;29;20505;-90
2022/05/19 01:12:49;;;;;;;28.58;25.33;;;17.00;99.90;;;;;;4882646;29;20047;-90
2022/05/19 01:15:16;;;;;;;29.50;26.25;;;17.00;99.90;;;;;;4897718;29;20104;-90
2022/05/19 01:17:42;;;;;;;29.65;26.48;;;17.00;99.90;;;;;;4898828;29;20056;-90
2022/05/19 01:20:15;;;;;;;29.35;26.42;;;17.00;99.90;;;;;;4899211;29;20416;-90
2022/05/19 01:22:57;;;;;;;32.25;28.85;;;17.00;99.90;;;;;;4898741;29;20056;-90
2022/05/19 01:25:45;;;;;;;30.58;27.45;;;16.90;99.90;;;;;;4882917;29;20051;-91
2022/05/19 01:28:11;;;;;;;30.73;27.25;;;16.90;99.90;;;;;;4898751;29;20052;-90
2022/05/19 01:30:38;;;;;;;29.13;26.10;;;16.90;99.90;;;;;;4882300;29;20450;-90
2022/05/19 01:33:04;;;;;;;29.13;26.10;;;16.80;99.90;;;;;;4898600;29;20043;-89
2022/05/19 01:35:33;;;;;;;30.70;27.45;;;16.80;99.90;;;;;;4914918;29;20044;-90
2022/05/19 01:38:00;;;;;;;31.83;28.52;;;16.70;99.90;;;;;;4882342;29;20079;-90
2022/05/19 01:40:57;;;;;;;32.22;29.02;;;16.80;99.90;;;;;;4882218;29;20244;-90
2022/05/19 01:43:36;;;;;;;30.35;27.33;;;16.70;99.90;;;;;;4914731;29;20495;-90
2022/05/19 01:46:25;;;;;;;34.40;30.80;;;16.70;99.90;;;;;;4882842;29;20108;-89
2022/05/19 01:49:21;;;;;;;33.53;30.13;;;16.70;99.90;;;;;;4897863;29;20472;-90
2022/05/19 01:51:55;;;;;;;34.38;30.95;;;16.60;99.90;;;;;;4897798;29;20103;-92
2022/05/19 01:54:48;;;;;;;35.63;31.35;;;16.70;99.90;;;;;;4898161;29;20084;-91
2022/05/19 01:57:27;;;;;;;33.78;30.25;;;16.70;99.90;;;;;;4898887;29;20503;-91
2022/05/19 02:00:08;;;;;;;36.65;32.72;;;16.70;99.90;;;;;;4882841;29;20438;-93
2022/05/19 02:03:02;;;;;;;37.28;33.25;;;16.70;99.90;;;;;;4882471;29;20048;-91
2022/05/19 02:05:37;;;;;;;36.97;33.15;;;16.60;99.90;;;;;;4915464;29;20066;-90
2022/05/19 02:08:07;;;;;;;37.92;33.65;;;16.60;99.90;;;;;;4882079;29;20070;-92
2022/05/19 02:10:37;;;;;;;39.53;35.38;;;16.60;99.90;;;;;;4897952;29;20595;-92
2022/05/19 02:13:05;;;;;;;42.10;37.92;;;16.60;99.90;;;;;;4898911;29;20055;-93
2022/05/19 02:15:34;;;;;;;43.75;39.38;;;16.50;99.90;;;;;;4898588;29;20055;-93
2022/05/19 02:18:01;;;;;;;47.42;42.50;;;16.50;99.90;;;;;;4883171;29;20183;-92
2022/05/19 02:20:28;;;;;;;47.42;42.50;;;16.60;99.90;;;;;;4915479;29;20059;-90
2022/05/19 02:22:54;;;;;;;46.83;42.03;;;16.60;99.90;;;;;;4881907;29;20044;-91
2022/05/19 02:25:41;;;;;;;48.85;43.78;;;16.50;99.90;;;;;;4915150;29;20050;-93
2022/05/19 02:28:33;;;;;;;49.50;44.40;;;16.50;99.90;;;;;;4883749;29;20036;-91
2022/05/19 02:30:59;;;;;;;50.97;45.78;;;16.50;99.90;;;;;;4915063;29;20063;-92
2022/05/19 02:33:26;;;;;;;52.38;46.97;;;16.50;99.90;;;;;;4898225;29;20079;-89
2022/05/19 02:35:52;;;;;;;54.90;49.38;;;16.50;99.90;;;;;;4897836;29;20100;-92
2022/05/19 02:38:19;;;;;;;53.60;48.17;;;16.50;99.90;;;;;;4914407;29;20383;-90
2022/05/19 02:40:46;;;;;;;54.53;49.13;;;16.50;99.90;;;;;;4897065;29;20040;-93
2022/05/19 02:43:13;;;;;;;52.95;47.63;;;16.50;99.90;;;;;;4914476;29;20437;-89
2022/05/19 02:45:39;;;;;;;54.17;48.65;;;16.50;99.90;;;;;;4897061;29;20116;-92
2022/05/19 02:48:06;;;;;;;53.28;47.97;;;16.50;99.90;;;;;;4898023;29;20048;-90
2022/05/19 02:50:32;;;;;;;55.42;49.95;;;16.50;99.90;;;;;;4881812;29;20062;-91
2022/05/19 02:52:58;;;;;;;54.75;49.40;;;16.50;99.90;;;;;;4881587;29;20509;-90
2022/05/19 02:55:24;;;;;;;53.03;47.63;;;16.50;99.90;;;;;;4896718;29;20047;-90
2022/05/19 02:57:50;;;;;;;53.80;48.10;;;16.60;99.90;;;;;;4897183;29;20108;-90
2022/05/19 03:00:20;;;;;;;56.10;50.45;;;16.60;99.90;;;;;;4897451;29;20406;-91
2022/05/19 03:02:46;;;;;;;51.72;46.50;;;16.60;99.90;;;;;;4881019;29;20517;-89
2022/05/19 03:05:14;;;;;;;53.83;48.42;;;16.60;99.90;;;;;;4914483;29;20056;-90
2022/05/19 03:07:40;;;;;;;51.65;46.53;;;16.60;99.90;;;;;;4913491;29;20103;-88
2022/05/19 03:10:06;;;;;;;52.85;47.60;;;16.60;99.90;;;;;;4897361;29;20454;-90
2022/05/19 03:12:33;;;;;;;56.72;50.95;;;16.60;99.90;;;;;;4881368;29;20508;-90
2022/05/19 03:14:58;;;;;;;52.92;47.60;;;16.60;99.90;;;;;;4896743;29;20040;-89
2022/05/19 03:17:24;;;;;;;54.25;48.60;;;16.60;99.90;;;;;;4881562;29;20055;-90
2022/05/19 03:19:53;;;;;;;54.80;49.30;;;16.60;99.90;;;;;;4896745;29;20075;-93
2022/05/19 03:22:19;;;;;;;55.58;50.08;;;16.60;99.90;;;;;;4896674;29;20094;-91
2022/05/19 03:24:45;;;;;;;51.83;46.58;;;16.60;99.90;;;;;;4897069;29;20092;-88
2022/05/19 03:27:11;;;;;;;52.75;47.47;;;16.60;99.90;;;;;;4881230;29;20048;-92
2022/05/19 03:29:37;;;;;;;54.88;49.47;;;16.60;99.90;;;;;;4880443;29;20044;-89
2022/05/19 03:32:03;;;;;;;56.03;50.50;;;16.60;99.90;;;;;;4881276;29;20095;-91
2022/05/19 03:34:29;;;;;;;53.70;48.30;;;16.60;99.90;;;;;;4896408;29;20079;-89
2022/05/19 03:36:55;;;;;;;54.42;49.03;;;16.60;99.90;;;;;;4895614;29;20086;-89
2022/05/19 03:39:20;;;;;;;59.88;53.65;;;16.60;99.90;;;;;;4915868;29;20063;-89
2022/05/19 03:41:46;;;;;;;56.70;51.22;;;16.60;99.90;;;;;;4899553;29;20055;-90
2022/05/19 03:44:12;;;;;;;55.33;49.75;;;16.60;99.90;;;;;;4900444;29;20104;-90
2022/05/19 03:46:37;;;;;;;58.38;52.38;;;16.60;99.90;;;;;;4915040;29;20048;-89
2022/05/19 03:49:04;;;;;;;54.33;49.00;;;16.60;99.90;;;;;;4900280;29;20040;-90
2022/05/19 03:51:32;;;;;;;56.03;50.35;;;16.60;99.90;;;;;;4884319;29;20398;-91
2022/05/19 03:53:59;;;;;;;57.28;51.38;;;16.60;99.90;;;;;;4900043;29;20091;-88
2022/05/19 03:56:25;;;;;;;57.28;51.35;;;16.60;99.90;;;;;;4899742;29;20493;-90
2022/05/19 03:58:51;;;;;;;57.67;51.83;;;16.60;99.90;;;;;;4899113;29;20142;-89
2022/05/19 04:01:18;;;;;;;59.67;53.67;;;16.60;99.90;;;;;;4899846;29;20048;-89
2022/05/19 04:03:44;;;;;;;59.28;53.33;;;16.60;99.90;;;;;;4916190;29;20108;-89
2022/05/19 04:06:10;;;;;;;62.63;56.33;;;16.60;99.90;;;;;;4917128;29;20326;-91
2022/05/19 04:08:36;;;;;;;57.13;51.35;;;16.50;99.90;;;;;;4898975;29;20072;-89
2022/05/19 04:11:02;;;;;;;60.97;55.00;;;16.50;99.90;;;;;;4900690;29;20811;-91
2022/05/19 04:13:28;;;;;;;60.00;54.13;;;16.50;99.90;;;;;;4899497;29;20087;-90
2022/05/19 04:15:53;;;;;;;58.28;52.47;;;16.60;99.90;;;;;;4915851;29;20102;-89
2022/05/19 04:18:19;;;;;;;60.33;54.28;;;16.50;99.90;;;;;;4916291;29;20128;-90
2022/05/19 04:20:44;;;;;;;62.10;55.92;;;16.50;99.90;;;;;;4898896;29;20401;-89
2022/05/19 04:23:11;;;;;;;57.28;51.65;;;16.50;99.90;;;;;;4883739;29;20048;-89
2022/05/19 04:25:37;;;;;;;60.25;54.03;;;16.60;99.90;;;;;;4883704;29;20103;-89
2022/05/19 04:28:03;;;;;;;59.72;53.67;;;16.60;99.90;;;;;;4900172;29;20486;-89
2022/05/19 04:30:29;;;;;;;59.05;53.15;;;16.60;99.90;;;;;;4916068;29;20044;-89
2022/05/19 04:32:55;;;;;;;55.33;49.72;;;16.70;99.90;;;;;;4898878;29;20043;-89
2022/05/19 04:35:21;;;;;;;58.72;52.95;;;16.80;99.90;;;;;;4883533;29;20040;-89
2022/05/19 04:37:47;;;;;;;57.17;51.47;;;16.80;99.90;;;;;;4898319;29;20044;-89
2022/05/19 04:40:15;;;;;;;60.85;54.65;;;16.90;99.90;;;;;;4883644;29;20075;-90
2022/05/19 04:42:41;;;;;;;55.92;50.47;;;17.00;99.90;;;;;;4883232;29;20142;-90
2022/05/19 04:45:08;;;;;;;58.33;52.53;;;17.10;99.90;;;;;;4898888;29;20130;-91
2022/05/19 04:47:33;;;;;;;52.08;46.97;;;17.20;99.90;;;;;;4898212;29;20653;-90
2022/05/19 04:49:59;;;;;;;55.20;49.90;;;17.20;99.90;;;;;;4915752;29;20459;-90
2022/05/19 04:52:24;;;;;;;53.05;47.92;;;17.20;99.90;;;;;;4883577;29;20051;-90
2022/05/19 04:54:51;;;;;;;54.45;48.90;;;17.20;99.90;;;;;;4898472;29;20050;-91
2022/05/19 04:57:17;;;;;;;54.20;48.70;;;17.30;99.90;;;;;;4882923;29;20076;-91
2022/05/19 04:59:43;;;;;;;53.80;48.38;;;17.30;99.90;;;;;;4915933;29;20044;-90
2022/05/19 05:02:10;;;;;;;53.40;48.08;;;17.40;99.90;;;;;;4883129;29;20047;-90
2022/05/19 05:04:36;;;;;;;52.75;47.50;;;17.40;99.90;;;;;;4898378;29;20044;-90
2022/05/19 05:07:02;;;;;;;53.17;47.97;;;17.50;99.90;;;;;;4899045;29;20589;-91
2022/05/19 05:09:27;;;;;;;53.65;48.42;;;17.50;99.90;;;;;;4895279;29;20052;-90
2022/05/19 05:11:53;;;;;;;51.75;46.90;;;17.60;99.90;;;;;;4879568;29;20127;-90
2022/05/19 05:14:19;;;;;;;52.47;47.10;;;17.60;99.90;;;;;;4880919;29;20131;-90
2022/05/19 05:16:53;;;;;;;51.55;46.28;;;17.70;99.90;;;;;;4897082;29;20047;-90
2022/05/19 05:19:22;;;;;;;50.13;45.20;;;17.80;99.90;;;;;;4882957;29;20044;-90
2022/05/19 05:21:50;;;;;;;49.10;44.40;;;17.90;99.90;;;;;;4899376;29;20108;-90
2022/05/19 05:24:16;;;;;;;48.70;44.15;;;18.00;99.90;;;;;;4901559;29;20105;-91
2022/05/19 05:26:42;;;;;;;47.08;42.78;;;18.20;99.90;;;;;;4891315;29;20111;-90
2022/05/19 05:29:07;;;;;;;44.47;40.17;;;18.20;99.90;;;;;;4907780;29;20410;-91
2022/05/19 05:31:33;;;;;;;43.88;39.55;;;18.40;99.90;;;;;;4887797;29;20600;-91
2022/05/19 05:33:59;;;;;;;44.20;40.17;;;18.50;99.90;;;;;;4897262;29;20125;-90
2022/05/19 05:36:25;;;;;;;42.20;38.20;;;18.60;99.90;;;;;;4895041;29;20045;-90
2022/05/19 05:38:50;;;;;;;41.15;37.25;;;18.80;99.90;;;;;;4878959;29;20383;-90
2022/05/19 05:41:16;;;;;;;40.50;36.70;;;18.90;99.90;;;;;;4895990;29;20131;-89
2022/05/19 05:43:41;;;;;;;38.70;35.17;;;19.10;99.90;;;;;;4879643;29;20052;-91
2022/05/19 05:46:17;;;;;;;38.28;34.33;;;19.20;99.90;;;;;;4897201;29;20047;-90
2022/05/19 05:48:45;;;;;;;37.55;33.83;;;19.40;99.90;;;;;;4896839;29;20040;-89
2022/05/19 05:51:12;;;;;;;36.45;32.65;;;19.50;99.90;;;;;;4879717;29;20089;-91
2022/05/19 05:53:39;;;;;;;35.35;30.23;;;19.70;99.90;;;;;;4879400;29;20044;-90
2022/05/19 05:56:07;;;;;;;29.95;26.95;;;19.90;99.90;;;;;;4896770;29;20055;-88
2022/05/19 05:58:33;;;;;;;29.58;26.67;;;20.10;99.90;;;;;;4895002;29;20048;-88
2022/05/19 06:00:58;;;;;;;29.13;26.00;;;20.20;99.90;;;;;;4877973;29;20053;-88
2022/05/19 06:03:25;;;;;;;26.73;23.95;;;20.40;99.90;;;;;;4894213;29;20044;-89
2022/05/19 06:05:50;;;;;;;25.95;23.25;;;20.40;99.90;;;;;;4894735;29;20048;-88
2022/05/19 06:08:16;;;;;;;22.42;20.17;;;20.40;99.90;;;;;;4904749;29;20058;-88
2022/05/19 06:10:42;;;;;;;21.67;18.98;;;20.40;99.90;;;;;;4913785;29;20104;-89
2022/05/19 06:13:08;;;;;;;18.67;16.50;;;20.40;99.90;;;;;;4915059;29;20059;-88
2022/05/19 06:15:35;;;;;;;20.00;16.75;;;20.40;99.90;;;;;;4896531;29;20135;-88
2022/05/19 06:18:01;;;;;;;18.13;15.85;;;20.50;99.90;;;;;;4897110;29;20048;-87
2022/05/19 06:20:27;;;;;;;18.55;15.32;;;20.70;99.90;;;;;;4914174;29;20108;-90
2022/05/19 06:22:53;;;;;;;17.15;15.00;;;20.70;99.90;;;;;;4897012;29;20090;-89
2022/05/19 06:25:22;;;;;;;16.48;13.63;;;20.80;99.90;;;;;;4897175;29;20048;-91
2022/05/19 06:27:49;;;;;;;14.93;11.77;;;20.80;99.90;;;;;;4881050;29;20052;-89
2022/05/19 06:30:15;;;;;;;15.85;12.07;;;20.90;99.90;;;;;;4881091;29;20449;-88
2022/05/19 06:32:45;;;;;;;14.43;11.07;;;20.90;99.90;;;;;;4896731;29;20094;-88
2022/05/19 06:35:12;;;;;;;15.15;12.65;;;21.00;99.90;;;;;;4897109;29;20150;-91
2022/05/19 06:37:38;;;;;;;15.32;12.70;;;21.10;99.90;;;;;;4913254;29;20044;-88
2022/05/19 06:40:06;;;;;;;15.32;13.35;;;21.20;99.90;;;;;;4896763;29;20051;-88
2022/05/19 06:42:31;;;;;;;14.93;13.32;;;21.30;99.90;;;;;;4897220;29;20098;-91
2022/05/19 06:44:57;;;;;;;16.55;13.57;;;21.40;99.90;;;;;;4895666;29;20079;-88
2022/05/19 06:47:22;;;;;;;17.40;14.73;;;21.40;99.90;;;;;;4881381;29;20070;-88
2022/05/19 06:49:51;;;;;;;15.88;14.18;;;21.40;99.90;;;;;;4865191;29;20051;-90
2022/05/19 06:52:29;;;;;;;18.85;15.75;;;21.30;99.90;;;;;;4913457;29;20052;-91
2022/05/19 06:54:57;;;;;;;20.05;16.33;;;21.30;99.90;;;;;;4896177;29;20048;-90
2022/05/19 06:57:25;;;;;;;16.90;15.20;;;21.20;99.90;;;;;;4880766;29;20044;-89
2022/05/19 06:59:52;;;;;;;17.02;15.13;;;21.10;99.90;;;;;;4895626;29;20419;-89
2022/05/19 07:02:19;;;;;;;16.73;14.73;;;21.10;99.90;;;;;;4895896;29;20096;-88
2022/05/19 07:04:45;;;;;;;16.40;14.10;;;21.00;99.90;;;;;;4913474;29;20454;-92
2022/05/19 07:07:12;;;;;;;16.08;14.30;;;21.00;99.90;;;;;;4913429;29;20107;-89
2022/05/19 07:09:39;;;;;;;15.35;13.45;;;20.90;99.90;;;;;;4895766;29;20052;-89
2022/05/19 07:12:06;;;;;;;16.33;14.07;;;20.80;99.90;;;;;;4896344;29;20040;-90
2022/05/19 07:14:33;;;;;;;16.75;14.60;;;20.80;99.90;;;;;;4915588;29;20050;-91
2022/05/19 07:16:59;;;;;;;16.25;13.40;;;20.80;99.90;;;;;;4884521;29;20521;-88
2022/05/19 07:22:15;;;;;;;15.07;10.88;;;20.90;99.90;;;;;;4917462;29;20134;-90
2022/05/19 07:24:41;;;;;;;13.60;10.60;;;21.00;99.90;;;;;;4900153;29;20048;-89
2022/05/19 07:27:06;;;;;;;15.23;11.10;;;21.00;99.90;;;;;;4900155;29;20062;-90
2022/05/19 07:29:32;;;;;;;14.55;10.13;;;21.00;99.90;;;;;;4899910;29;20050;-91
2022/05/19 07:32:01;;;;;;;13.25;9.75;;;21.00;99.90;;;;;;4917370;29;20397;-90
2022/05/19 07:34:28;;;;;;;12.85;9.25;;;21.00;99.90;;;;;;4884642;29;20409;-90
2022/05/19 07:36:55;;;;;;;14.18;10.68;;;20.90;99.90;;;;;;4900144;29;20409;-89
2022/05/19 07:39:21;;;;;;;13.10;10.20;;;20.90;99.90;;;;;;4899862;29;20166;-87
2022/05/19 07:41:47;;;;;;;13.43;9.90;;;20.80;99.90;;;;;;4899488;29;20153;-90
2022/05/19 07:44:13;;;;;;;12.88;8.70;;;20.80;99.90;;;;;;4901512;29;20052;-90
2022/05/19 07:46:39;;;;;;;14.48;10.55;;;20.70;99.90;;;;;;4922090;29;20402;-90
2022/05/19 07:49:05;;;;;;;17.48;12.95;;;20.70;99.90;;;;;;4905822;29;20040;-89
2022/05/19 07:51:37;;;;;;;16.10;14.23;;;20.60;99.90;;;;;;4924222;29;20048;-91
2022/05/19 07:54:09;;;;;;;18.23;15.43;;;20.60;99.90;;;;;;4907802;29;20075;-90
2022/05/19 07:56:35;;;;;;;17.38;15.50;;;20.50;99.90;;;;;;4891193;29;20055;-88
2022/05/19 07:59:01;;;;;;;19.40;16.33;;;20.50;99.90;;;;;;4907723;29;20044;-91
2022/05/19 08:01:29;;;;;;;20.17;18.08;;;20.50;99.90;;;;;;4889592;29;20048;-89
2022/05/19 08:03:56;;;;;;;20.08;18.02;;;20.40;99.90;;;;;;4919974;29;20044;-90
2022/05/19 08:06:21;;;;;;;21.35;19.20;;;20.40;99.90;;;;;;4904724;29;20052;-89
2022/05/19 08:08:48;;;;;;;21.65;19.40;;;20.30;99.90;;;;;;4902774;29;20067;-89
2022/05/19 08:11:14;;;;;;;21.45;19.15;;;20.30;99.90;;;;;;4870118;29;20049;-90
2022/05/19 08:16:24;;;;;;;22.35;19.88;;;20.20;99.90;;;;;;4912561;29;20056;-96
2022/05/19 08:18:51;;;;;;;22.88;20.55;;;20.10;99.90;;;;;;4911050;29;20045;-96
2022/05/19 08:21:17;;;;;;;23.70;20.58;;;20.00;99.90;;;;;;4879513;29;20052;-96
2022/05/19 08:23:50;;;;;;;24.42;21.23;;;20.00;99.90;;;;;;4894104;29;20044;-94
2022/05/19 08:26:17;;;;;;;23.80;21.30;;;19.90;99.90;;;;;;4913005;29;20513;-95
2022/05/19 08:28:44;;;;;;;24.33;21.85;;;19.90;99.90;;;;;;4903805;29;20045;-96
2022/05/19 08:31:13;;;;;;;22.40;20.08;;;19.90;99.90;;;;;;4886951;29;20049;-95
2022/05/19 08:33:41;;;;;;;20.67;18.65;;;19.90;99.90;;;;;;4902145;29;20053;-94
2022/05/19 08:36:08;;;;;;;20.98;18.88;;;20.00;99.90;;;;;;4902116;29;20036;-95
2022/05/19 08:38:34;;;;;;;20.55;18.42;;;20.10;99.90;;;;;;4873235;29;20041;-96
2022/05/19 08:41:05;;;;;;;20.10;18.08;;;20.10;99.90;;;;;;4899179;29;20414;-93
2022/05/19 08:43:45;;;;;;;20.50;18.48;;;20.20;99.90;;;;;;4901168;29;20055;-95
2022/05/19 08:46:36;;;;;;;20.77;18.60;;;20.30;99.90;;;;;;4900447;29;20070;-96
2022/05/19 08:49:05;;;;;;;;;;;20.40;99.90;;;;;;4898919;29;20466;-93
2022/05/19 08:51:38;;;;;;;20.35;17.20;;;20.60;99.90;;;;;;4897125;29;19927;-91
2022/05/19 08:54:06;;;;;;;19.15;17.15;;;20.60;99.90;;;;;;4897031;29;20048;-90
2022/05/19 08:56:39;;;;;;;20.55;18.45;;;20.80;99.90;;;;;;4896886;29;20055;-90
2022/05/19 08:59:38;;;;;;;20.45;18.02;;;20.80;99.90;;;;;;4897381;29;20059;-89
2022/05/19 09:02:09;;;;;;;19.73;17.65;;;21.00;99.90;;;;;;4896405;29;20140;-93
2022/05/19 09:04:42;;;;;;;22.05;19.67;;;21.00;99.90;;;;;;4895432;29;20047;-92
2022/05/19 09:10:34;;;;;;;21.27;19.23;;;21.20;99.90;;;;;;4898118;29;20056;-93
2022/05/19 09:13:34;;;;;;;21.60;19.48;;;21.30;99.90;;;;;;4898463;29;20044;-89
2022/05/19 09:16:06;;;;;;;22.65;19.55;;;21.40;99.90;;;;;;4915674;29;20056;-93
2022/05/19 09:18:37;;;;;;;20.58;18.48;;;21.50;99.90;;;;;;4898632;29;20044;-89
2022/05/19 09:21:05;;;;;;;19.55;17.55;;;21.70;99.90;;;;;;4882746;29;20059;-89
2022/05/19 09:23:32;;;;;;;19.75;17.75;;;21.80;99.90;;;;;;4882664;29;20394;-89
2022/05/19 09:26:25;;;;;;;20.92;18.70;;;21.90;99.90;;;;;;4897510;29;20051;-93
2022/05/19 09:28:56;;;;;;;19.63;17.63;;;22.10;99.90;;;;;;4881845;29;20362;-88
2022/05/19 09:31:42;;;;;;;19.35;17.27;;;22.10;99.90;;;;;;4897884;29;20469;-93
2022/05/19 09:34:09;;;;;;;18.88;16.25;;;22.20;99.90;;;;;;4897974;29;20052;-91
2022/05/19 09:36:41;;;;;;;19.67;17.67;;;22.30;99.90;;;;;;4896253;29;20401;-88
2022/05/19 09:39:15;;;;;;;21.65;17.70;;;22.40;99.90;;;;;;4897377;29;20040;-91
2022/05/19 09:41:47;;;;;;;18.88;16.88;;;22.40;99.90;;;;;;4881822;29;20087;-91
2022/05/19 09:44:16;;;;;;;20.48;18.27;;;22.60;99.90;;;;;;4898880;29;20048;-89
2022/05/19 09:46:47;;;;;;;20.27;18.25;;;22.70;99.90;;;;;;4914410;29;20048;-89
2022/05/19 09:49:32;;;;;;;21.63;19.33;;;22.80;99.90;;;;;;4897957;29;20402;-88
2022/05/19 09:52:05;;;;;;;20.85;18.77;;;22.90;99.90;;;;;;4896736;29;20044;-90
2022/05/19 09:54:33;;;;;;;19.20;17.20;;;23.00;99.90;;;;;;4897291;29;20047;-89
2022/05/19 09:57:43;;;;;;;19.20;17.30;;;23.10;99.90;;;;;;4914875;29;20048;-91
2022/05/19 10:00:18;;;;;;;20.65;18.27;;;23.10;99.90;;;;;;4914828;29;20052;-89
2022/05/19 10:02:46;;;;;;;20.65;18.45;;;23.10;99.90;;;;;;4914084;29;20083;-88
2022/05/19 10:05:29;;;;;;;19.67;17.58;;;23.20;99.90;;;;;;4914364;29;20047;-88
2022/05/19 10:08:00;;;;;;;18.58;16.77;;;23.20;99.90;;;;;;4896205;29;20060;-89
2022/05/19 10:10:29;;;;;;;19.65;17.60;;;23.30;99.90;;;;;;4896842;29;20130;-92
2022/05/19 10:13:02;;;;;;;20.30;18.20;;;23.30;99.90;;;;;;4896418;29;20044;-88
2022/05/19 10:15:49;;;;;;;18.88;16.88;;;23.30;99.90;;;;;;4896766;29;20080;-90
2022/05/19 10:18:27;;;;;;;17.85;15.95;;;23.20;99.90;;;;;;4883878;29;20468;-94
2022/05/19 10:21:18;;;;;;;20.50;18.42;;;23.20;99.90;;;;;;4880581;29;20091;-89
2022/05/19 10:23:59;;;;;;;22.05;19.10;;;23.20;99.90;;;;;;4896422;29;20092;-87
2022/05/19 10:26:24;;;;;;;;;;;23.30;99.90;;;;;;4897132;29;20063;-91
2022/05/19 10:32:29;;;;;;;20.70;17.35;;;23.30;99.90;;;;;;4896695;29;20142;-88
2022/05/19 10:35:08;;;;;;;18.77;16.83;;;23.40;99.90;;;;;;4880533;29;20052;-88
2022/05/19 10:37:58;;;;;;;18.70;16.70;;;23.50;99.90;;;;;;4912857;29;20055;-89
2022/05/19 10:40:44;;;;;;;17.02;15.23;;;23.60;99.90;;;;;;4896421;29;20131;-88
2022/05/19 10:43:34;;;;;;;16.83;15.05;;;23.70;99.90;;;;;;4896667;29;20134;-91
2022/05/19 10:46:01;;;;;;;19.00;17.17;;;23.80;99.90;;;;;;4897506;29;20059;-94
2022/05/19 10:48:45;;;;;;;18.05;16.17;;;23.90;99.90;;;;;;4880776;29;20045;-92
2022/05/19 10:51:13;;;;;;;16.13;14.13;;;23.90;99.90;;;;;;4881788;29;20135;-90
2022/05/19 10:53:39;;;;;;;14.85;12.02;;;24.00;99.90;;;;;;4880921;29;20140;-89
2022/05/19 10:56:13;;;;;;;12.15;9.82;;;24.10;99.90;;;;;;4897523;29;20056;-91
2022/05/19 10:59:18;;;;;;;13.07;11.32;;;24.20;99.90;;;;;;4897281;29;20048;-90
2022/05/19 11:01:52;;;;;;;12.43;10.63;;;24.30;99.90;;;;;;4912677;29;20056;-90
2022/05/19 11:05:07;;;;;;;13.75;10.68;;;24.40;99.90;;;;;;4897067;29;20123;-90
2022/05/19 11:07:54;;;;;;;12.68;10.30;;;24.50;99.90;;;;;;4898982;29;20544;-90
2022/05/19 11:10:28;;;;;;;12.40;9.05;;;24.50;99.90;;;;;;4898763;29;20056;-91
2022/05/19 11:13:09;;;;;;;12.45;9.60;;;24.50;99.90;;;;;;4882140;29;20051;-90
2022/05/19 11:15:50;;;;;;;11.68;10.15;;;24.50;99.90;;;;;;4922660;29;20111;-90
2022/05/19 11:18:28;;;;;;;10.18;8.00;;;24.50;99.90;;;;;;4903575;29;20059;-90
2022/05/19 11:21:10;;;;;;;10.23;7.07;;;24.60;99.90;;;;;;4897851;29;20378;-90
2022/05/19 11:23:53;;;;;;;11.63;8.10;;;24.60;99.90;;;;;;4914042;29;20055;-91
2022/05/19 11:26:27;;;;;;;9.50;6.25;;;24.60;99.90;;;;;;4896423;29;20096;-91
2022/05/19 11:29:02;;;;;;;8.98;5.93;;;24.70;99.90;;;;;;4912765;29;20386;-91
2022/05/19 11:31:36;;;;;;;7.90;5.03;;;24.80;99.90;;;;;;4913142;29;20130;-90
2022/05/19 11:34:18;;;;;;;7.10;4.40;;;24.80;99.90;;;;;;4880374;29;20051;-94
2022/05/19 11:36:52;;;;;;;9.18;5.43;;;24.90;99.90;;;;;;4895631;29;20051;-89
2022/05/19 11:40:06;;;;;;;8.45;5.35;;;25.00;99.90;;;;;;4880369;29;20056;-89
2022/05/19 11:42:44;;;;;;;8.95;4.80;;;25.10;99.90;;;;;;4881069;29;20123;-89
2022/05/19 11:45:40;;;;;;;8.13;4.95;;;25.30;99.90;;;;;;4913264;29;20059;-91
2022/05/19 11:57:24;;;;;;;7.57;4.10;;;25.80;99.90;;;;;;4895674;29;20055;-90
2022/05/19 11:59:55;;;;;;;6.82;4.13;;;25.80;99.90;;;;;;4897770;29;20056;-90
2022/05/19 12:02:26;;;;;;;;;;;25.90;99.90;;;;;;4900134;29;20059;-90
2022/05/19 12:04:58;;;;;;;8.32;3.80;;;25.80;99.90;;;;;;4915793;29;19927;-91
2022/05/19 12:07:44;;;;;;;6.75;4.00;;;25.90;99.90;;;;;;4883439;29;20250;-90
2022/05/19 12:10:14;;;;;;;7.10;4.07;;;26.00;99.90;;;;;;4899902;29;20052;-89
2022/05/19 12:12:45;;;;;;;8.10;4.20;;;26.10;99.90;;;;;;4898682;29;20401;-87
2022/05/19 12:15:23;;;;;;;7.30;4.25;;;26.00;99.90;;;;;;4899108;29;20091;-88
2022/05/19 12:18:01;;;;;;;7.45;3.70;;;25.90;99.90;;;;;;4898009;29;20061;-89
2022/05/19 12:20:39;;;;;;;6.78;4.40;;;25.90;99.90;;;;;;4882965;29;20080;-88
2022/05/19 12:23:24;;;;;;;9.15;4.95;;;25.80;99.90;;;;;;4898890;29;20130;-90
2022/05/19 12:25:53;;;;;;;7.30;4.60;;;25.70;99.90;;;;;;4898413;29;20048;-90
2022/05/19 12:28:18;;;;;;;7.88;5.18;;;25.60;99.90;;;;;;4883104;29;20052;-90
2022/05/19 12:33:52;;;;;;;8.30;4.97;;;25.50;99.90;;;;;;4898466;29;20422;-90
2022/05/19 12:36:25;;;;;;;10.05;5.30;;;25.30;99.90;;;;;;4898424;29;20047;-89
2022/05/19 12:38:51;;;;;;;7.22;4.25;;;25.20;99.90;;;;;;4898169;29;20044;-90
2022/05/19 12:41:23;;;;;;;7.85;3.85;;;25.10;99.90;;;;;;4898440;29;20127;-90
2022/05/19 12:43:51;;;;;;;7.10;4.45;;;25.00;99.90;;;;;;4914851;29;20138;-89
2022/05/19 12:46:38;;;;;;;7.35;4.22;;;24.90;99.90;;;;;;4914959;29;20058;-89
2022/05/19 12:49:23;;;;;;;8.95;6.05;;;24.70;99.90;;;;;;4915663;29;20127;-89
2022/05/19 12:51:53;;;;;;;8.32;5.30;;;24.60;99.90;;;;;;4897698;29;20048;-90
2022/05/19 12:54:20;;;;;;;7.90;5.10;;;24.60;99.90;;;;;;4882269;29;20545;-89
2022/05/19 12:56:45;;;;;;;8.13;5.30;;;24.50;99.90;;;;;;4897772;29;20513;-90
2022/05/19 12:59:21;;;;;;;8.70;5.10;;;24.40;99.90;;;;;;4882858;29;20044;-90
2022/05/19 13:01:48;;;;;;;8.23;5.05;;;24.40;99.90;;;;;;4915262;29;20116;-91
2022/05/19 13:04:23;;;;;;;9.65;5.28;;;24.30;99.90;;;;;;4899598;29;20036;-92
2022/05/19 13:06:54;;;;;;;6.97;4.70;;;24.10;99.90;;;;;;4915860;29;20052;-95
2022/05/19 13:09:21;;;;;;;;;;;24.00;99.90;;;;;;4901902;29;20465;-96
2022/05/19 13:11:53;;;;;;;7.70;5.60;;;23.70;99.90;;;;;;4917078;29;20308;-93
2022/05/19 13:14:27;;;;;;;8.65;5.13;;;23.60;99.90;;;;;;4899063;29;20044;-92
2022/05/19 13:16:54;;;;;;;8.50;5.15;;;23.50;99.90;;;;;;4898361;29;20115;-91